Time;durP1;ratioP1;P1;durP2;ratioP2;P2;SDS_P1;SDS_P2;PMS_P1;PMS_P2;Temp;Humidity;BMP_temperature;BMP_pressure;BME280_temperature;BME280_humidity;BME280_pressure;Samples;Min_cycle;Max_cycle;Signal;HPM_P1;HPM_P2
2021/09/14 00:02:57;;;;;;;6.77;4.10;;;;;;;19.84;56.35;98014.66;8395673;28;20231;-63
2021/09/14 00:07:02;;;;;;;6.80;4.33;;;;;;;19.78;56.24;98015.16;8386216;28;20235;-63
2021/09/14 00:11:05;;;;;;;6.87;4.60;;;;;;;19.78;56.70;98014.31;8386268;28;20211;-63
2021/09/14 00:15:11;;;;;;;4.43;3.97;;;;;;;19.79;56.38;98005.47;8386203;28;20207;-63
2021/09/14 00:19:15;;;;;;;8.10;4.33;;;;;;;19.76;56.01;98000.47;8386091;28;20199;-63
2021/09/14 00:23:17;;;;;;;4.23;3.70;;;;;;;19.73;56.35;97999.75;8385686;28;20227;-63
2021/09/14 00:27:20;;;;;;;5.17;4.30;;;;;;;19.69;56.31;98003.56;8385646;28;20200;-63
2021/09/14 00:31:25;;;;;;;4.50;3.93;;;;;;;19.70;56.74;98005.25;8385907;28;20201;-63
2021/09/14 00:35:28;;;;;;;9.80;4.67;;;;;;;19.70;57.60;97999.13;8385410;28;20219;-63
2021/09/14 00:39:31;;;;;;;6.43;4.60;;;;;;;19.69;57.94;98003.56;8385592;28;20200;-63
2021/09/14 00:43:34;;;;;;;5.20;4.70;;;;;;;19.69;57.92;98000.09;8385320;28;20526;-63
2021/09/14 00:47:38;;;;;;;5.87;4.50;;;;;;;19.66;57.83;98002.97;8385190;28;20200;-63
2021/09/14 00:51:41;;;;;;;4.77;4.10;;;;;;;19.70;57.72;97991.25;8385070;28;20391;-63
2021/09/14 00:55:44;;;;;;;5.13;4.63;;;;;;;19.64;57.85;97987.31;8384948;28;20499;-63
2021/09/14 00:59:47;;;;;;;4.93;4.40;;;;;;;19.62;57.93;97989.25;8384726;28;20199;-63
2021/09/14 01:03:51;;;;;;;9.70;4.40;;;;;;;19.65;58.17;97988.19;8417212;28;20530;-64
2021/09/14 01:07:55;;;;;;;5.13;4.20;;;;;;;19.63;58.11;97984.81;8417624;28;20542;-63
2021/09/14 01:11:57;;;;;;;4.63;4.13;;;;;;;19.59;57.78;97979.00;8417449;28;20199;-64
2021/09/14 01:16:06;;;;;;;6.60;4.53;;;;;;;19.62;57.74;97980.53;8417375;28;20206;-63
2021/09/14 01:20:12;;;;;;;8.30;4.33;;;;;;;19.56;57.70;97979.25;8417274;28;20199;-63
2021/09/14 01:24:16;;;;;;;6.23;4.57;;;;;;;19.56;57.67;97970.53;8417170;28;20234;-63
2021/09/14 01:28:19;;;;;;;5.03;4.17;;;;;;;19.49;58.30;97978.88;8417065;28;20199;-63
2021/09/14 01:32:22;;;;;;;5.73;4.53;;;;;;;19.46;58.17;97978.31;8416865;28;20517;-64
2021/09/14 01:36:25;;;;;;;5.07;4.50;;;;;;;19.51;58.09;97984.03;8415906;28;20206;-63
2021/09/14 01:40:29;;;;;;;4.73;3.73;;;;;;;19.46;58.05;97973.91;8416741;28;20218;-63
2021/09/14 01:44:32;;;;;;;5.90;4.40;;;;;;;19.43;57.86;97974.13;8416593;28;20230;-63
2021/09/14 01:48:35;;;;;;;4.37;3.97;;;;;;;19.38;58.21;97973.69;8416551;28;20366;-63
2021/09/14 01:52:38;;;;;;;5.43;4.40;;;;;;;19.43;57.84;97966.25;8416481;28;20513;-63
2021/09/14 01:56:42;;;;;;;4.77;4.20;;;;;;;19.39;57.88;97962.22;8416394;28;20384;-63
2021/09/14 02:00:52;;;;;;;5.83;4.20;;;;;;;19.35;58.36;97963.44;8416186;28;20206;-64
2021/09/14 02:04:59;;;;;;;6.27;4.73;;;;;;;19.34;57.88;97962.59;8416293;28;20425;-63
2021/09/14 03:01:03;;;;;;;4.60;4.03;;;;;;;19.07;58.17;97947.25;8421498;28;20199;-63
2021/09/14 03:05:09;;;;;;;4.37;3.90;;;;;;;19.06;58.04;97942.97;8421335;28;20530;-63
2021/09/14 03:09:12;;;;;;;4.80;4.30;;;;;;;19.03;58.44;97945.00;8421613;28;20216;-64
2021/09/14 03:13:15;;;;;;;5.87;4.20;;;;;;;18.97;58.17;97943.69;8421286;28;20218;-63
2021/09/14 03:17:18;;;;;;;4.73;4.33;;;;;;;19.00;58.31;97937.34;8421225;28;20362;-63
2021/09/14 03:21:22;;;;;;;4.93;4.43;;;;;;;18.92;58.57;97936.19;8420967;28;20206;-63
2021/09/14 03:25:25;;;;;;;5.73;4.40;;;;;;;18.98;58.42;97941.91;8420929;28;20552;-63
2021/09/14 03:29:28;;;;;;;6.80;4.33;;;;;;;18.89;58.34;97939.06;8420759;28;20199;-63
2021/09/14 03:33:31;;;;;;;5.17;4.10;;;;;;;18.92;58.44;97938.81;8420617;28;20522;-63
2021/09/14 03:37:35;;;;;;;4.80;4.00;;;;;;;18.92;58.19;97928.31;8420741;28;20494;-63
2021/09/14 03:41:38;;;;;;;8.00;4.53;;;;;;;18.90;58.28;97932.84;8420529;28;20205;-63
2021/09/14 03:45:42;;;;;;;6.10;4.20;;;;;;;18.88;58.32;97928.66;8420369;28;20222;-63
2021/09/14 03:49:45;;;;;;;4.93;4.37;;;;;;;18.85;58.17;97926.28;8420276;28;20202;-63
2021/09/14 03:53:49;;;;;;;4.70;4.20;;;;;;;18.87;58.48;97921.78;8420198;28;20202;-63
2021/09/14 03:57:52;;;;;;;5.97;4.30;;;;;;;18.82;58.79;97919.50;8419944;28;20206;-63
2021/09/14 04:01:58;;;;;;;5.83;4.47;;;;;;;18.85;58.41;97921.03;8418852;28;20521;-63
2021/09/14 04:06:20;;;;;;;6.17;4.43;;;;;;;18.86;58.39;97922.72;8419633;28;20231;-63
2021/09/14 04:10:24;;;;;;;4.77;4.30;;;;;;;18.83;58.50;97917.69;8419606;28;20203;-63
2021/09/14 04:14:29;;;;;;;9.53;4.93;;;;;;;18.79;58.66;97917.09;8419521;28;20203;-63
2021/09/14 04:18:32;;;;;;;7.13;4.63;;;;;;;18.76;58.24;97920.78;8419497;28;20221;-63
2021/09/14 04:22:35;;;;;;;4.53;4.13;;;;;;;18.80;58.55;97929.28;8419244;28;20203;-63
2021/09/14 04:26:39;;;;;;;6.20;4.53;;;;;;;18.77;58.55;97929.47;8419181;28;20231;-63
2021/09/14 04:30:42;;;;;;;5.10;4.67;;;;;;;18.78;58.81;97932.94;8418902;28;20199;-63
2021/09/14 04:34:45;;;;;;;7.73;4.57;;;;;;;18.72;58.65;97932.47;8418751;28;20246;-63
2021/09/14 04:38:48;;;;;;;6.60;4.63;;;;;;;18.76;58.50;97941.75;8418554;28;20199;-63
2021/09/14 04:42:52;;;;;;;6.10;4.77;;;;;;;18.66;58.77;97945.25;8418433;28;20210;-63
2021/09/14 04:46:55;;;;;;;5.33;4.20;;;;;;;18.68;58.45;97940.72;8418222;28;20199;-63
2021/09/14 04:50:57;;;;;;;5.37;4.87;;;;;;;18.70;58.76;97949.28;8418445;28;20203;-63
2021/09/14 04:55:00;;;;;;;7.07;5.10;;;;;;;18.65;58.77;97949.63;8417836;28;20210;-63
2021/09/14 04:59:05;;;;;;;5.67;4.80;;;;;;;18.64;58.98;97947.13;8417971;28;20363;-63
2021/09/14 05:03:08;;;;;;;6.60;4.97;;;;;;;18.53;59.24;97945.34;8414333;28;20202;-63
2021/09/14 05:07:10;;;;;;;4.63;4.20;;;;;;;18.64;58.82;97945.34;8389694;28;20239;-63
2021/09/14 05:11:13;;;;;;;8.50;5.30;;;;;;;18.65;59.02;97944.38;8403076;28;20483;-63
2021/09/14 05:15:18;;;;;;;5.50;4.67;;;;;;;18.66;58.51;97945.25;8400739;28;20211;-63
2021/09/14 05:19:30;;;;;;;7.13;4.63;;;;;;;18.69;58.50;97943.19;8384084;28;20207;-63
2021/09/14 05:23:33;;;;;;;6.40;4.90;;;;;;;18.81;58.72;97944.06;8384103;28;20228;-63
2021/09/14 05:27:36;;;;;;;6.67;4.60;;;;;;;18.93;58.18;97942.28;8386630;28;20378;-63
2021/09/14 05:31:41;;;;;;;5.87;4.67;;;;;;;19.08;57.73;97940.22;8383472;28;20206;-63
2021/09/14 05:35:46;;;;;;;9.07;4.33;;;;;;;19.24;57.57;97937.19;8383496;28;20253;-64
2021/09/14 05:39:49;;;;;;;6.80;4.77;;;;;;;19.37;57.43;97940.50;8383592;28;20200;-63
2021/09/14 05:43:52;;;;;;;8.27;4.43;;;;;;;19.48;57.56;97934.38;8383329;28;20224;-63
2021/09/14 05:47:56;;;;;;;4.33;3.93;;;;;;;19.57;56.92;97931.00;8383506;28;20231;-63
2021/09/14 05:51:59;;;;;;;5.63;4.13;;;;;;;19.29;57.68;97940.28;8383229;28;20218;-63
2021/09/14 05:56:02;;;;;;;4.40;3.93;;;;;;;19.22;58.02;97941.75;8386414;28;20222;-63
2021/09/14 06:00:07;;;;;;;8.43;4.43;;;;;;;19.13;58.32;97933.66;8385050;28;20241;-63
2021/09/14 06:04:11;;;;;;;6.43;4.23;;;;;;;19.66;57.50;97926.78;8416113;28;20223;-63
2021/09/14 06:08:14;;;;;;;6.47;4.30;;;;;;;19.70;57.42;97936.94;8415880;28;20235;-63
2021/09/14 06:12:17;;;;;;;6.33;4.30;;;;;;;19.94;56.77;97937.69;8408370;28;20198;-67
2021/09/14 06:16:20;;;;;;;8.30;4.37;;;;;;;20.13;57.20;97935.19;8402275;28;20206;-62
2021/09/14 06:20:24;;;;;;;9.60;4.33;;;;;;;20.29;57.61;97943.41;8382705;28;20234;-62
2021/09/14 06:24:27;;;;;;;7.27;4.10;;;;;;;20.62;56.05;97938.06;8391585;28;20230;-62
2021/09/14 06:28:30;;;;;;;7.70;4.50;;;;;;;20.63;55.19;97927.44;8409417;28;20195;-62
2021/09/14 06:32:33;;;;;;;5.57;4.40;;;;;;;20.31;55.73;97922.25;8426771;28;20233;-62
2021/09/14 06:36:37;;;;;;;5.30;3.70;;;;;;;20.30;56.53;97918.81;8420663;28;20198;-61
2021/09/14 06:40:40;;;;;;;5.07;3.97;;;;;;;20.52;55.95;97922.22;8426723;28;20509;-61
2021/09/14 06:44:43;;;;;;;5.73;4.50;;;;;;;20.40;56.05;97926.75;8426635;28;20226;-61
2021/09/14 06:48:46;;;;;;;6.80;3.90;;;;;;;20.69;55.97;97923.44;8426668;28;20206;-61
2021/09/14 06:52:50;;;;;;;7.60;4.60;;;;;;;20.65;55.59;97938.66;8423445;28;20202;-61
2021/09/14 06:56:53;;;;;;;7.97;4.20;;;;;;;21.09;54.60;97935.75;8418428;28;20195;-61
2021/09/14 07:00:56;;;;;;;3.97;3.57;;;;;;;21.07;54.82;97937.69;8403601;28;20202;-61
2021/09/14 07:04:59;;;;;;;6.57;4.40;;;;;;;21.26;54.54;97936.88;8397661;28;20220;-61
2021/09/14 07:09:03;;;;;;;7.87;4.10;;;;;;;20.96;54.77;97937.78;8398585;28;20195;-61
2021/09/14 07:13:06;;;;;;;8.40;4.17;;;;;;;20.81;55.48;97940.81;8423066;28;20387;-61
2021/09/14 07:17:10;;;;;;;8.00;3.93;;;;;;;20.79;55.71;97940.13;8423038;28;20203;-61
2021/09/14 07:21:13;;;;;;;7.03;4.30;;;;;;;20.57;55.91;97943.72;8426101;28;20199;-61
2021/09/14 07:25:17;;;;;;;10.03;4.87;;;;;;;20.80;55.89;97941.75;8425957;28;20233;-61
2021/09/14 07:29:20;;;;;;;9.00;4.83;;;;;;;20.61;56.71;97942.50;8425840;28;20226;-61
2021/09/14 07:33:23;;;;;;;6.27;4.57;;;;;;;21.11;55.61;97944.34;8418620;28;20219;-61
2021/09/14 07:37:26;;;;;;;7.67;4.63;;;;;;;21.07;55.92;97938.50;8420658;28;20517;-61
2021/09/14 07:41:30;;;;;;;7.33;4.37;;;;;;;21.72;55.24;97943.34;8406134;28;20198;-61
2021/09/14 07:45:33;;;;;;;5.10;4.40;;;;;;;21.88;54.13;97941.97;8402924;28;20219;-61
2021/09/14 07:49:36;;;;;;;6.27;4.40;;;;;;;22.42;52.31;97943.94;8402869;28;20193;-61
2021/09/14 07:53:39;;;;;;;8.90;4.83;;;;;;;22.50;52.63;97945.03;8402868;28;20202;-61
2021/09/14 07:57:43;;;;;;;8.43;4.47;;;;;;;22.77;51.36;97939.81;8396412;28;20388;-61
2021/09/14 08:01:46;;;;;;;9.07;4.70;;;;;;;22.97;50.59;97937.91;8403597;28;20368;-62
2021/09/14 08:05:49;;;;;;;8.67;4.63;;;;;;;22.77;51.13;97938.97;8419847;28;20238;-62
2021/09/14 08:09:52;;;;;;;8.83;4.40;;;;;;;23.18;50.78;97942.97;8407688;28;20199;-62
2021/09/14 08:13:56;;;;;;;8.73;4.47;;;;;;;23.65;48.12;97938.47;8408595;28;20197;-62
2021/09/14 08:18:00;;;;;;;7.13;4.30;;;;;;;23.76;48.40;97936.44;8415937;28;20207;-62
2021/09/14 08:22:02;;;;;;;4.47;3.90;;;;;;;24.03;47.87;97939.13;8404701;28;20224;-62
2021/09/14 08:26:05;;;;;;;5.30;3.80;;;;;;;24.32;47.17;97937.03;8419216;28;20234;-65
2021/09/14 08:30:11;;;;;;;10.10;4.10;;;;;;;24.49;46.70;97940.59;8418937;28;20510;-65
2021/09/14 08:34:14;;;;;;;6.67;4.03;;;;;;;24.73;46.28;97937.28;8418798;28;20223;-65
2021/09/14 08:38:17;;;;;;;8.80;4.37;;;;;;;24.84;46.02;97940.63;8418689;28;20217;-65
2021/09/14 08:42:21;;;;;;;8.07;5.00;;;;;;;25.48;45.25;97941.03;8418650;28;20302;-65
2021/09/14 08:46:27;;;;;;;10.97;4.97;;;;;;;25.38;45.20;97929.72;8418172;28;20414;-65
2021/09/14 08:50:30;;;;;;;6.90;5.23;;;;;;;25.36;45.34;97929.91;8418059;28;20237;-65
2021/09/14 08:54:33;;;;;;;7.00;4.20;;;;;;;25.92;44.36;97928.31;8418235;28;20200;-65
2021/09/14 08:58:37;;;;;;;9.83;5.23;;;;;;;25.67;45.19;97929.28;8417913;28;20214;-65
2021/09/14 09:02:41;;;;;;;10.33;4.90;;;;;;;26.00;44.21;97924.00;8417777;28;20208;-65
2021/09/14 09:06:44;;;;;;;12.87;5.40;;;;;;;25.64;45.01;97929.59;8438545;28;20236;-67
2021/09/14 09:11:01;;;;;;;8.03;4.77;;;;;;;26.13;44.35;97922.50;8384537;28;20201;-67
2021/09/14 09:15:05;;;;;;;8.07;5.63;;;;;;;25.99;45.74;97925.84;8389686;28;20206;-67
2021/09/14 09:19:09;;;;;;;6.67;4.50;;;;;;;26.64;44.09;97927.56;8409118;28;20195;-67
2021/09/14 09:23:15;;;;;;;8.33;5.33;;;;;;;26.68;43.73;97925.41;8417312;28;20201;-67
2021/09/14 09:27:20;;;;;;;8.13;5.10;;;;;;;26.75;43.47;97912.25;8417079;28;20335;-68
2021/09/14 09:31:23;;;;;;;8.87;5.30;;;;;;;26.04;44.73;97912.88;8408214;28;20196;-67
2021/09/14 09:35:29;;;;;;;8.13;4.87;;;;;;;26.60;44.20;97912.97;8416926;28;20402;-67
2021/09/14 09:39:41;;;;;;;7.83;4.20;;;;;;;26.79;43.81;97917.06;8416875;28;20213;-68
2021/09/14 09:43:44;;;;;;;6.83;4.50;;;;;;;27.35;42.98;97910.81;8409759;28;20198;-68
2021/09/14 09:47:49;;;;;;;6.53;4.20;;;;;;;27.44;41.77;97910.56;8416533;28;20249;-68
2021/09/14 09:51:54;;;;;;;7.73;4.40;;;;;;;27.28;41.58;97900.88;8416312;28;20491;-68
2021/09/14 09:55:57;;;;;;;6.53;4.07;;;;;;;27.88;41.00;97899.28;8413486;28;20210;-68
2021/09/14 10:00:01;;;;;;;10.10;4.37;;;;;;;27.91;40.95;97890.09;8410108;28;20207;-68
2021/09/14 10:04:08;;;;;;;11.63;4.33;;;;;;;28.26;41.25;97895.78;8414861;28;20209;-68
2021/09/14 10:08:15;;;;;;;6.43;4.10;;;;;;;28.21;40.46;97890.97;8405280;28;20238;-68
2021/09/14 10:12:23;;;;;;;10.00;4.07;;;;;;;28.08;40.09;97898.75;8395540;28;20195;-68
2021/09/14 10:16:26;;;;;;;9.53;3.90;;;;;;;28.08;40.20;97894.28;8390683;28;20206;-67
2021/09/14 10:20:37;;;;;;;5.33;3.87;;;;;;;28.21;40.00;97890.16;8382965;28;20201;-68
2021/09/14 10:24:50;;;;;;;8.33;3.87;;;;;;;28.72;39.60;97890.28;8413561;28;20200;-68
2021/09/14 10:28:53;;;;;;;4.93;3.67;;;;;;;28.19;40.14;97884.19;8415434;28;20229;-67
2021/09/14 10:32:56;;;;;;;8.17;4.50;;;;;;;27.80;40.25;97888.69;8412718;28;20229;-68
2021/09/14 10:37:00;;;;;;;8.77;4.10;;;;;;;28.36;39.14;97879.53;8403085;28;20299;-68
2021/09/14 10:41:14;;;;;;;8.37;4.47;;;;;;;28.51;38.86;97885.69;8406929;28;20264;-68
2021/09/14 10:45:20;;;;;;;5.80;4.50;;;;;;;29.02;38.02;97877.72;8400885;28;20231;-68
2021/09/14 10:49:23;;;;;;;7.63;3.73;;;;;;;29.38;38.47;97873.41;8398985;28;20198;-67
2021/09/14 10:53:30;;;;;;;7.17;5.07;;;;;;;28.47;38.38;97873.75;8401778;28;20220;-68
2021/09/14 10:57:34;;;;;;;7.00;4.50;;;;;;;29.01;37.33;97864.59;8401171;28;20402;-68
2021/09/14 11:01:37;;;;;;;8.23;4.70;;;;;;;29.42;37.33;97883.50;8399521;28;20516;-67
2021/09/14 11:05:40;;;;;;;4.47;3.77;;;;;;;29.27;36.91;97872.06;8402514;28;20245;-68
2021/09/14 11:09:46;;;;;;;6.20;3.80;;;;;;;28.82;38.04;97869.50;8401506;28;20207;-68
2021/09/14 11:13:50;;;;;;;5.97;4.43;;;;;;;28.42;38.28;97873.47;8408389;28;20494;-67
2021/09/14 11:17:53;;;;;;;4.23;3.83;;;;;;;29.33;37.21;97870.50;8409008;28;20221;-67
2021/09/14 11:21:56;;;;;;;7.03;3.67;;;;;;;29.54;36.53;97875.81;8403731;28;20201;-67
2021/09/14 11:26:00;;;;;;;4.83;4.20;;;;;;;29.39;36.69;97865.22;8403759;28;20416;-67
2021/09/14 11:30:06;;;;;;;6.67;4.00;;;;;;;29.31;37.58;97875.19;8402217;28;20259;-67
2021/09/14 11:34:09;;;;;;;6.67;4.00;;;;;;;29.38;37.26;97870.75;8419678;28;20222;-68
2021/09/14 11:38:12;;;;;;;5.43;4.00;;;;;;;29.45;36.63;97871.63;8417501;28;20210;-68
2021/09/14 11:42:15;;;;;;;6.97;4.07;;;;;;;29.44;37.36;97853.97;8406350;28;20194;-68
2021/09/14 11:46:20;;;;;;;9.87;4.67;;;;;;;29.61;36.20;97860.69;8405881;28;20223;-68
2021/09/14 11:50:24;;;;;;;4.27;3.67;;;;;;;29.80;36.60;97859.25;8400103;28;20217;-68
2021/09/14 11:54:33;;;;;;;4.27;3.87;;;;;;;29.12;37.96;97858.75;8398994;28;20201;-67
2021/09/14 11:58:37;;;;;;;4.13;3.63;;;;;;;29.44;37.31;97853.97;8420140;28;20383;-68
2021/09/14 12:02:50;;;;;;;7.47;3.80;;;;;;;29.23;37.13;97847.63;8419819;28;20205;-68
2021/09/14 12:06:55;;;;;;;4.10;3.70;;;;;;;29.53;36.83;97847.50;8419590;28;20484;-68
2021/09/14 12:10:59;;;;;;;8.60;4.07;;;;;;;29.33;37.03;97854.50;8418054;28;20199;-68
2021/09/14 12:15:02;;;;;;;6.17;3.80;;;;;;;29.02;37.38;97851.06;8402160;28;20198;-68
2021/09/14 12:19:08;;;;;;;7.53;3.87;;;;;;;29.24;37.54;97859.09;8415823;28;20209;-68
2021/09/14 12:23:11;;;;;;;8.50;3.60;;;;;;;29.66;36.53;97851.28;8423515;28;20204;-66
2021/09/14 12:27:14;;;;;;;3.93;3.43;;;;;;;29.93;36.25;97847.84;8434573;28;20229;-66
2021/09/14 12:31:17;;;;;;;4.30;3.90;;;;;;;29.36;36.72;97843.41;8445385;28;20358;-66
2021/09/14 12:35:21;;;;;;;4.40;3.80;;;;;;;29.89;35.00;97851.09;8418759;28;20227;-66
2021/09/14 12:39:24;;;;;;;5.43;3.70;;;;;;;30.02;35.60;97843.16;8422382;28;20208;-66
2021/09/14 12:43:27;;;;;;;5.27;3.27;;;;;;;30.25;35.59;97836.72;8452284;28;20224;-66
2021/09/14 12:47:30;;;;;;;3.60;3.23;;;;;;;30.28;34.26;97837.16;8452096;28;20556;-66
2021/09/14 12:51:35;;;;;;;4.53;3.00;;;;;;;30.31;34.01;97828.78;8452039;28;20206;-66
2021/09/14 12:55:39;;;;;;;3.73;3.10;;;;;;;29.97;34.96;97832.28;8429428;28;20195;-66
2021/09/14 12:59:42;;;;;;;4.17;3.30;;;;;;;29.86;35.07;97822.13;8448906;28;20198;-66
2021/09/14 13:03:47;;;;;;;3.30;3.00;;;;;;;30.08;35.22;97830.88;8451394;28;20217;-66
2021/09/14 13:07:51;;;;;;;5.67;3.30;;;;;;;29.55;35.66;97829.47;8451385;28;20246;-66
2021/09/14 13:12:07;;;;;;;6.93;3.20;;;;;;;29.98;34.89;97825.91;8451250;28;20524;-66
2021/09/14 13:16:10;;;;;;;4.03;3.20;;;;;;;29.78;34.68;97817.75;8451534;28;20201;-66
2021/09/14 13:20:13;;;;;;;5.93;3.57;;;;;;;29.49;34.63;97824.88;8451044;28;20213;-66
2021/09/14 13:24:18;;;;;;;4.03;3.40;;;;;;;29.28;35.18;97820.38;8435314;28;20201;-66
2021/09/14 13:28:20;;;;;;;8.80;3.60;;;;;;;29.65;34.99;97809.63;8417336;28;20234;-67
2021/09/14 13:32:23;;;;;;;6.70;3.30;;;;;;;29.89;34.11;97800.38;8416789;28;20209;-66
2021/09/14 13:36:26;;;;;;;3.50;3.20;;;;;;;30.01;34.45;97806.81;8416901;28;20210;-66
2021/09/14 13:40:31;;;;;;;4.93;3.60;;;;;;;30.50;33.92;97797.88;8416784;28;20205;-66
2021/09/14 13:48:55;;;;;;;5.30;3.27;;;;;;;30.63;33.87;97786.38;8416559;28;20235;-66
2021/09/14 13:52:58;;;;;;;5.77;3.27;;;;;;;30.79;33.84;97793.22;8416554;28;20208;-66
2021/09/14 13:57:02;;;;;;;4.43;3.10;;;;;;;30.56;33.33;97791.72;8416349;28;20204;-66
2021/09/14 14:01:05;;;;;;;3.30;3.00;;;;;;;30.64;32.01;97790.72;8416072;28;20491;-66
2021/09/14 14:05:10;;;;;;;6.60;3.40;;;;;;;29.63;34.08;97785.81;8416453;28;20207;-66
2021/09/14 14:09:13;;;;;;;3.73;3.20;;;;;;;30.12;33.15;97798.28;8415939;28;20241;-66
2021/09/14 14:13:18;;;;;;;3.97;2.73;;;;;;;30.44;33.27;97797.81;8415932;28;20202;-66
2021/09/14 14:17:20;;;;;;;4.47;3.07;;;;;;;30.66;32.75;97791.34;8415774;28;20210;-66
2021/09/14 14:21:23;;;;;;;5.73;3.63;;;;;;;30.21;32.83;97783.75;8415753;28;20202;-65
2021/09/14 14:25:26;;;;;;;9.53;3.10;;;;;;;29.84;33.85;97784.13;8415593;28;20210;-65
2021/09/14 14:29:31;;;;;;;5.00;3.10;;;;;;;29.91;33.13;97787.66;8415755;28;20226;-65
2021/09/14 14:33:36;;;;;;;6.63;3.13;;;;;;;29.84;33.50;97795.63;8415482;28;20226;-65
2021/09/14 14:37:39;;;;;;;6.60;2.93;;;;;;;30.04;32.71;97793.06;8415858;28;20208;-66
2021/09/14 14:41:43;;;;;;;7.30;3.17;;;;;;;30.00;33.11;97794.50;8415765;28;20204;-66
2021/09/14 14:45:48;;;;;;;5.20;3.17;;;;;;;30.01;33.51;97796.16;8420913;28;20206;-66
2021/09/14 14:49:50;;;;;;;5.13;3.07;;;;;;;29.70;34.01;97783.16;8422013;28;20231;-65
2021/09/14 14:53:53;;;;;;;12.13;4.13;;;;;;;29.93;33.78;97785.59;8422078;28;20206;-65
2021/09/14 14:57:56;;;;;;;5.03;3.17;;;;;;;29.74;34.55;97779.97;8421798;28;20232;-66
2021/09/14 15:02:01;;;;;;;3.47;3.00;;;;;;;29.64;34.21;97779.44;8421838;28;20485;-66
2021/09/14 15:06:05;;;;;;;4.77;3.47;;;;;;;29.63;34.37;97780.47;8421390;28;20244;-65
2021/09/14 15:10:09;;;;;;;6.10;3.30;;;;;;;29.49;35.09;97790.19;8421545;28;20233;-66
2021/09/14 15:14:12;;;;;;;3.73;3.20;;;;;;;29.21;35.25;97779.53;8421388;28;20202;-66
2021/09/14 15:18:17;;;;;;;3.53;3.20;;;;;;;29.23;34.78;97783.63;8416109;28;20198;-66
2021/09/14 15:22:20;;;;;;;5.63;3.33;;;;;;;29.07;35.42;97781.19;8390524;28;20489;-65
2021/09/14 15:26:23;;;;;;;4.60;3.30;;;;;;;29.15;35.35;97781.09;8420396;28;20210;-65
2021/09/14 15:30:30;;;;;;;3.37;3.03;;;;;;;29.08;35.38;97785.50;8420820;28;20225;-65
2021/09/14 15:34:34;;;;;;;7.97;3.30;;;;;;;28.69;36.38;97780.59;8420707;28;20228;-65
2021/09/14 15:38:39;;;;;;;4.60;3.40;;;;;;;28.69;36.49;97781.41;8420717;28;20205;-65
2021/09/14 15:42:42;;;;;;;4.50;3.30;;;;;;;28.70;36.61;97782.25;8420566;28;20225;-65
2021/09/14 15:46:45;;;;;;;5.40;3.50;;;;;;;28.44;36.57;97772.91;8422594;28;20196;-65
2021/09/14 15:50:49;;;;;;;3.70;3.20;;;;;;;28.44;36.97;97779.06;8432276;28;20220;-65
2021/09/14 15:54:52;;;;;;;3.37;3.00;;;;;;;28.37;36.94;97780.81;8448776;28;20497;-65
2021/09/14 15:58:57;;;;;;;4.17;3.47;;;;;;;28.15;37.39;97781.75;8419956;28;20206;-65
2021/09/14 16:03:00;;;;;;;4.37;3.40;;;;;;;27.99;37.59;97774.78;8419697;28;20387;-65
2021/09/14 16:07:07;;;;;;;4.17;3.30;;;;;;;27.92;38.12;97774.69;8453557;28;20235;-64
2021/09/14 16:11:10;;;;;;;4.87;3.43;;;;;;;27.73;37.87;97777.88;8453267;28;20207;-65
2021/09/14 16:15:13;;;;;;;4.43;3.57;;;;;;;27.66;38.66;97777.75;8406683;28;20217;-64
2021/09/14 16:19:16;;;;;;;6.20;3.60;;;;;;;27.58;38.87;97776.00;8400182;28;20196;-64
2021/09/14 16:23:20;;;;;;;5.13;3.50;;;;;;;27.54;39.46;97773.88;8408678;28;20495;-64
2021/09/14 16:27:23;;;;;;;4.23;3.50;;;;;;;27.36;39.60;97780.38;8404345;28;20200;-64
2021/09/14 16:31:26;;;;;;;5.97;3.87;;;;;;;27.23;40.00;97783.59;8402575;28;20507;-64
2021/09/14 16:35:29;;;;;;;4.90;3.73;;;;;;;27.15;40.46;97786.31;8401344;28;20222;-65
2021/09/14 16:39:37;;;;;;;6.37;4.13;;;;;;;27.07;40.63;97781.91;8402013;28;20205;-64
2021/09/14 16:43:40;;;;;;;10.97;5.90;;;;;;;26.90;41.00;97783.84;8385148;28;20200;-64
2021/09/14 16:47:44;;;;;;;13.17;10.13;;;;;;;26.81;41.26;97790.19;8405745;28;20223;-63
2021/09/14 16:51:47;;;;;;;13.17;8.37;;;;;;;26.74;41.57;97788.41;8401143;28;20196;-63
2021/09/14 16:55:51;;;;;;;100.73;59.67;;;;;;;26.77;41.66;97793.38;8402877;28;20211;-64
2021/09/14 16:59:54;;;;;;;90.00;52.37;;;;;;;26.68;42.25;97784.63;8400863;28;20395;-64
2021/09/14 17:03:57;;;;;;;32.07;19.10;;;;;;;26.56;42.69;97786.84;8400603;28;20212;-64
2021/09/14 17:08:00;;;;;;;18.63;10.80;;;;;;;26.51;42.64;97782.03;8408949;28;20240;-64
2021/09/14 17:12:04;;;;;;;35.53;21.03;;;;;;;26.41;43.34;97775.28;8417660;28;20200;-63
2021/09/14 17:16:08;;;;;;;441.47;282.20;;;;;;;26.42;43.64;97776.94;8417627;28;20201;-63
2021/09/14 17:20:11;;;;;;;549.27;374.10;;;;;;;26.41;44.77;97784.06;8401565;28;20202;-64
2021/09/14 17:24:14;;;;;;;183.23;113.63;;;;;;;26.36;44.12;97774.97;8401131;28;20196;-63
2021/09/14 17:28:18;;;;;;;351.57;223.87;;;;;;;26.32;44.82;97787.75;8417095;28;20232;-63
2021/09/14 17:32:22;;;;;;;207.50;124.77;;;;;;;26.22;44.98;97781.84;8417025;28;20208;-63
2021/09/14 17:36:24;;;;;;;276.43;168.00;;;;;;;26.11;46.50;97786.50;8416951;28;20205;-63
2021/09/14 17:40:27;;;;;;;220.63;131.00;;;;;;;26.04;46.35;97788.19;8417013;28;20217;-64
2021/09/14 17:44:34;;;;;;;177.37;108.97;;;;;;;25.96;46.53;97782.09;8416964;28;20273;-64
2021/09/14 17:48:38;;;;;;;243.10;150.37;;;;;;;25.89;47.56;97784.53;8416481;28;20252;-63
2021/09/14 17:52:42;;;;;;;435.20;289.57;;;;;;;25.81;47.70;97789.88;8416615;28;20201;-63
2021/09/14 17:56:45;;;;;;;388.43;250.43;;;;;;;25.78;48.42;97787.56;8416499;28;20199;-63
2021/09/14 18:00:50;;;;;;;301.93;184.40;;;;;;;25.73;48.36;97791.53;8416264;28;20216;-64
2021/09/14 18:04:53;;;;;;;331.37;212.83;;;;;;;25.65;48.31;97783.63;8416444;28;20199;-64
2021/09/14 18:08:56;;;;;;;163.40;98.70;;;;;;;25.63;48.28;97782.94;8417201;28;20491;-64
2021/09/14 18:12:59;;;;;;;159.87;99.17;;;;;;;25.60;47.98;97787.75;8422818;28;20204;-64
2021/09/14 18:17:05;;;;;;;137.60;85.70;;;;;;;25.58;47.95;97784.44;8448335;28;20236;-64
2021/09/14 18:21:10;;;;;;;144.00;89.97;;;;;;;25.48;48.84;97785.44;8415520;28;20400;-64
2021/09/14 18:25:14;;;;;;;87.90;48.53;;;;;;;25.47;49.36;97783.78;8416028;28;20199;-63
2021/09/14 18:29:17;;;;;;;90.20;59.33;;;;;;;25.43;49.13;97786.94;8447527;28;20226;-64
2021/09/14 18:33:21;;;;;;;87.53;55.70;;;;;;;25.39;48.80;97786.44;8431834;28;20227;-63
2021/09/14 18:37:24;;;;;;;51.87;36.67;;;;;;;25.31;49.01;97799.72;8415834;28;20215;-63
2021/09/14 18:41:27;;;;;;;99.93;62.37;;;;;;;25.31;49.01;97799.72;8415790;28;20222;-63
2021/09/14 18:45:30;;;;;;;41.97;25.80;;;;;;;25.26;48.99;97802.84;8415732;28;20513;-63
2021/09/14 18:49:34;;;;;;;39.43;25.90;;;;;;;25.20;48.98;97797.34;8415414;28;20282;-63
2021/09/14 18:53:37;;;;;;;16.17;10.00;;;;;;;25.12;49.71;97806.94;8415536;28;20206;-63
2021/09/14 18:57:40;;;;;;;44.60;27.80;;;;;;;25.11;50.01;97805.31;8415454;28;20202;-63
2021/09/14 19:01:43;;;;;;;11.30;8.40;;;;;;;25.51;48.80;97809.00;8412878;28;20579;-63
2021/09/14 19:05:48;;;;;;;10.43;7.90;;;;;;;25.12;50.20;97806.94;8415186;28;20235;-63
2021/09/14 19:09:51;;;;;;;9.13;6.23;;;;;;;25.04;50.48;97814.06;8415255;28;20414;-62
2021/09/14 19:13:54;;;;;;;8.93;6.33;;;;;;;25.01;49.99;97806.44;8415206;28;20199;-63
2021/09/14 19:17:56;;;;;;;15.67;8.23;;;;;;;24.91;49.76;97806.59;8415177;28;20401;-63
2021/09/14 19:22:01;;;;;;;20.83;14.23;;;;;;;24.88;49.63;97806.91;8415088;28;20203;-63
2021/09/14 19:26:04;;;;;;;11.70;7.00;;;;;;;24.86;49.47;97803.59;8415070;28;20379;-62
2021/09/14 19:30:07;;;;;;;16.70;9.60;;;;;;;24.78;49.72;97807.06;8417143;28;20227;-63
2021/09/14 19:34:10;;;;;;;8.90;6.47;;;;;;;24.82;49.65;97796.97;8420798;28;20226;-63
2021/09/14 19:38:15;;;;;;;13.83;7.10;;;;;;;24.78;50.09;97799.09;8414373;28;20199;-63
2021/09/14 19:42:18;;;;;;;14.90;8.23;;;;;;;24.67;50.18;97800.22;8403166;28;20191;-62
2021/09/14 19:46:21;;;;;;;14.37;10.23;;;;;;;24.67;50.51;97797.59;8403211;28;20359;-62
2021/09/14 19:50:24;;;;;;;8.80;7.33;;;;;;;24.61;50.47;97792.13;8404413;28;20214;-62
2021/09/14 19:54:28;;;;;;;10.20;7.87;;;;;;;24.54;50.93;97797.22;8402881;28;20215;-62
2021/09/14 19:58:31;;;;;;;8.67;6.27;;;;;;;24.49;51.68;97796.84;8402439;28;20203;-62